Time;durP1;ratioP1;P1;durP2;ratioP2;P2;SDS_P1;SDS_P2;PMS_P1;PMS_P2;Temp;Humidity;BMP_temperature;BMP_pressure;BME280_temperature;BME280_humidity;BME280_pressure;Samples;Min_cycle;Max_cycle;Signal;HPM_P1;HPM_P2
2021/05/14 00:01:54;;;;;;;14.93;12.73;;;;;;;;;;5061058;28;20314;-71
2021/05/14 00:04:20;;;;;;;12.97;11.57;;;;;;;;;;5056517;28;20177;-70
2021/05/14 00:06:46;;;;;;;16.13;13.23;;;;;;;;;;5062576;28;20169;-71
2021/05/14 00:09:11;;;;;;;15.93;14.27;;;;;;;;;;5068466;28;20165;-69
2021/05/14 00:11:36;;;;;;;14.73;13.23;;;;;;;;;;5060203;28;20193;-71
2021/05/14 00:14:01;;;;;;;15.63;12.90;;;;;;;;;;5064734;28;20558;-69
2021/05/14 00:16:26;;;;;;;14.10;12.23;;;;;;;;;;5059684;28;20188;-71
2021/05/14 00:18:51;;;;;;;14.47;12.67;;;;;;;;;;5059213;28;20668;-70
2021/05/14 00:21:17;;;;;;;19.77;13.03;;;;;;;;;;5067225;28;20208;-71
2021/05/14 00:23:42;;;;;;;16.23;13.33;;;;;;;;;;5060524;28;20177;-70
2021/05/14 00:26:07;;;;;;;14.73;12.63;;;;;;;;;;5058938;28;20618;-71
2021/05/14 00:28:32;;;;;;;17.53;14.10;;;;;;;;;;5062024;28;20187;-70
2021/05/14 00:30:58;;;;;;;15.90;12.10;;;;;;;;;;5056605;28;20204;-71
2021/05/14 00:33:23;;;;;;;15.03;13.47;;;;;;;;;;5058418;28;20625;-70
2021/05/14 00:35:48;;;;;;;17.57;14.00;;;;;;;;;;5060158;28;20915;-71
2021/05/14 00:38:14;;;;;;;16.50;14.13;;;;;;;;;;5060849;28;21687;-70
2021/05/14 00:40:39;;;;;;;15.83;14.17;;;;;;;;;;5057822;28;20226;-70
2021/05/14 00:43:04;;;;;;;19.97;15.03;;;;;;;;;;5056485;28;20937;-71
2021/05/14 00:45:29;;;;;;;17.20;12.83;;;;;;;;;;5057178;28;20223;-70
2021/05/14 00:47:55;;;;;;;15.57;13.87;;;;;;;;;;5057404;28;20190;-71
2021/05/14 00:50:20;;;;;;;19.30;14.10;;;;;;;;;;5060055;28;20295;-69
2021/05/14 00:52:45;;;;;;;15.87;13.43;;;;;;;;;;5065527;28;20223;-71
2021/05/14 00:55:10;;;;;;;17.50;14.10;;;;;;;;;;5065955;28;20178;-71
2021/05/14 00:57:36;;;;;;;17.13;13.70;;;;;;;;;;5063060;28;20196;-71
2021/05/14 01:00:02;;;;;;;15.83;13.23;;;;;;;;;;5066208;28;20274;-70
2021/05/14 01:02:28;;;;;;;20.97;12.90;;;;;;;;;;5062418;28;20235;-71
2021/05/14 01:04:53;;;;;;;17.00;14.37;;;;;;;;;;5055815;28;20186;-70
2021/05/14 01:07:18;;;;;;;17.80;13.00;;;;;;;;;;5068167;28;20199;-71
2021/05/14 01:09:43;;;;;;;18.37;14.27;;;;;;;;;;5063374;28;20177;-69
2021/05/14 01:12:09;;;;;;;15.93;13.93;;;;;;;;;;5065797;28;20208;-71
2021/05/14 01:14:35;;;;;;;16.43;13.67;;;;;;;;;;5063888;28;20642;-71
2021/05/14 01:17:00;;;;;;;17.23;13.27;;;;;;;;;;5066218;28;20219;-71
2021/05/14 01:19:25;;;;;;;20.00;13.57;;;;;;;;;;5063980;28;20223;-71
2021/05/14 01:21:50;;;;;;;15.83;13.27;;;;;;;;;;5064945;28;20643;-71
2021/05/14 01:24:16;;;;;;;15.93;13.20;;;;;;;;;;5061683;28;20234;-71
2021/05/14 01:26:41;;;;;;;18.17;13.97;;;;;;;;;;5063916;28;20650;-71
2021/05/14 01:29:09;;;;;;;18.63;14.40;;;;;;;;;;5059714;28;20185;-70
2021/05/14 01:31:34;;;;;;;17.97;13.70;;;;;;;;;;5067333;28;20231;-71
2021/05/14 01:34:00;;;;;;;15.37;13.77;;;;;;;;;;5065466;28;20650;-71
2021/05/14 01:36:25;;;;;;;16.83;13.77;;;;;;;;;;5069290;28;20215;-70
2021/05/14 01:38:50;;;;;;;19.07;14.40;;;;;;;;;;5066432;28;20229;-71
2021/05/14 01:41:16;;;;;;;22.03;14.93;;;;;;;;;;5068592;28;20298;-72
2021/05/14 01:43:41;;;;;;;23.67;15.20;;;;;;;;;;5064320;28;20227;-71
2021/05/14 01:46:06;;;;;;;20.97;14.90;;;;;;;;;;5066962;28;20189;-71
2021/05/14 01:48:32;;;;;;;17.37;14.57;;;;;;;;;;5072836;28;20173;-71
2021/05/14 01:50:59;;;;;;;15.90;13.53;;;;;;;;;;5067113;28;20181;-71
2021/05/14 01:53:24;;;;;;;19.53;15.47;;;;;;;;;;5066333;28;20205;-70
2021/05/14 01:55:49;;;;;;;18.63;14.80;;;;;;;;;;5061272;28;20852;-71
2021/05/14 01:58:14;;;;;;;21.83;15.40;;;;;;;;;;5067993;28;20216;-71
2021/05/14 02:00:40;;;;;;;18.57;15.37;;;;;;;;;;5067464;28;20429;-71
2021/05/14 02:03:05;;;;;;;19.30;15.90;;;;;;;;;;5066441;28;20204;-70
2021/05/14 02:05:30;;;;;;;19.50;15.73;;;;;;;;;;5064055;28;20317;-71
2021/05/14 02:07:55;;;;;;;19.90;15.90;;;;;;;;;;5065362;28;20184;-70
2021/05/14 02:10:21;;;;;;;20.27;16.03;;;;;;;;;;5066365;28;20192;-70
2021/05/14 02:12:46;;;;;;;21.27;15.87;;;;;;;;;;5065326;28;20219;-70
2021/05/14 02:15:11;;;;;;;22.57;17.10;;;;;;;;;;5061157;28;20639;-71
2021/05/14 02:17:37;;;;;;;20.87;16.00;;;;;;;;;;5063487;28;20181;-70
2021/05/14 02:20:03;;;;;;;18.37;15.67;;;;;;;;;;5069222;28;20282;-70
2021/05/14 02:22:28;;;;;;;19.87;15.50;;;;;;;;;;5071956;28;20708;-70
2021/05/14 02:24:53;;;;;;;19.77;16.33;;;;;;;;;;5070576;28;20173;-71
2021/05/14 02:27:19;;;;;;;22.00;16.17;;;;;;;;;;5064125;28;20223;-70
2021/05/14 02:29:46;;;;;;;20.97;15.90;;;;;;;;;;5064722;28;20248;-71
2021/05/14 02:32:11;;;;;;;21.67;15.53;;;;;;;;;;5062872;28;20193;-71
2021/05/14 02:34:36;;;;;;;22.30;15.63;;;;;;;;;;5060888;28;20551;-71
2021/05/14 02:37:02;;;;;;;21.97;17.10;;;;;;;;;;5055197;28;20562;-70
2021/05/14 02:39:27;;;;;;;21.17;16.90;;;;;;;;;;5058049;28;20202;-71
2021/05/14 02:41:52;;;;;;;21.73;16.33;;;;;;;;;;5058969;28;20801;-70
2021/05/14 02:44:17;;;;;;;20.33;15.57;;;;;;;;;;5057962;28;20184;-71
2021/05/14 02:46:43;;;;;;;23.37;18.03;;;;;;;;;;5058623;28;20180;-70
2021/05/14 02:49:09;;;;;;;23.50;17.37;;;;;;;;;;5059283;28;20170;-69
2021/05/14 02:51:34;;;;;;;22.17;16.30;;;;;;;;;;5069675;28;20205;-70
2021/05/14 02:53:59;;;;;;;21.20;16.27;;;;;;;;;;5055050;28;20208;-71
2021/05/14 02:56:24;;;;;;;19.27;16.03;;;;;;;;;;5068913;28;20542;-69
2021/05/14 02:58:49;;;;;;;18.63;16.33;;;;;;;;;;5064922;28;20334;-70
2021/05/14 03:01:15;;;;;;;20.27;16.73;;;;;;;;;;5061745;28;20655;-70
2021/05/14 03:03:40;;;;;;;20.13;16.73;;;;;;;;;;5058945;28;20181;-70
2021/05/14 03:06:05;;;;;;;22.67;16.80;;;;;;;;;;5067354;28;20189;-69
2021/05/14 03:08:30;;;;;;;23.43;17.17;;;;;;;;;;5061679;28;20173;-71
2021/05/14 03:10:55;;;;;;;22.63;16.77;;;;;;;;;;5069393;28;20607;-69
2021/05/14 03:13:20;;;;;;;21.17;17.03;;;;;;;;;;5061036;28;20203;-70
2021/05/14 03:15:46;;;;;;;24.33;17.00;;;;;;;;;;5063612;28;20189;-69
2021/05/14 03:18:11;;;;;;;25.20;17.30;;;;;;;;;;5069913;28;20188;-70
2021/05/14 03:20:36;;;;;;;22.57;17.17;;;;;;;;;;5066277;28;20215;-70
2021/05/14 03:23:01;;;;;;;25.93;17.90;;;;;;;;;;5069605;28;20197;-71
2021/05/14 03:25:27;;;;;;;22.50;18.20;;;;;;;;;;5062219;28;20212;-70
2021/05/14 03:27:52;;;;;;;26.93;19.63;;;;;;;;;;5067938;28;20200;-71
2021/05/14 03:30:17;;;;;;;24.43;18.20;;;;;;;;;;5063429;28;20189;-70
2021/05/14 03:32:44;;;;;;;22.03;17.13;;;;;;;;;;5058178;28;20200;-70
2021/05/14 03:35:09;;;;;;;23.20;17.90;;;;;;;;;;5069590;28;20180;-70
2021/05/14 03:37:35;;;;;;;24.73;17.13;;;;;;;;;;5068061;28;20281;-71
2021/05/14 03:40:05;;;;;;;25.13;17.97;;;;;;;;;;5071447;28;20169;-70
2021/05/14 03:42:30;;;;;;;26.87;17.60;;;;;;;;;;5063247;28;20573;-70
2021/05/14 03:44:56;;;;;;;28.70;18.83;;;;;;;;;;5067508;28;20176;-71
2021/05/14 03:47:24;;;;;;;24.60;18.93;;;;;;;;;;5069957;28;20192;-71
2021/05/14 03:49:49;;;;;;;24.07;18.90;;;;;;;;;;5060918;28;20231;-71
2021/05/14 03:52:15;;;;;;;23.17;17.87;;;;;;;;;;5070088;28;20201;-71
2021/05/14 03:54:40;;;;;;;27.83;18.67;;;;;;;;;;5068828;28;20169;-70
2021/05/14 03:57:06;;;;;;;26.97;18.57;;;;;;;;;;5053190;28;20212;-71
2021/05/14 03:59:31;;;;;;;27.17;19.37;;;;;;;;;;5066783;28;20173;-70
2021/05/14 04:01:57;;;;;;;25.60;17.93;;;;;;;;;;5056606;28;20237;-71
2021/05/14 04:04:23;;;;;;;24.40;19.00;;;;;;;;;;5058796;28;20192;-71
2021/05/14 04:06:49;;;;;;;28.40;20.40;;;;;;;;;;5060418;28;20191;-71
2021/05/14 04:09:18;;;;;;;27.10;19.90;;;;;;;;;;5059538;28;20260;-70
2021/05/14 04:14:30;;;;;;;27.73;18.93;;;;;;;;;;5065126;28;20238;-70
2021/05/14 04:16:56;;;;;;;24.93;17.37;;;;;;;;;;5058019;28;20181;-70
2021/05/14 04:19:21;;;;;;;29.47;18.47;;;;;;;;;;5066183;28;20177;-70
2021/05/14 04:21:47;;;;;;;22.50;16.93;;;;;;;;;;5063542;28;20227;-70
2021/05/14 04:24:12;;;;;;;26.63;18.50;;;;;;;;;;5069732;28;20184;-70
2021/05/14 04:26:37;;;;;;;29.23;20.30;;;;;;;;;;5062677;28;20201;-70
2021/05/14 04:29:03;;;;;;;23.47;17.87;;;;;;;;;;5062990;28;20225;-69
2021/05/14 04:31:28;;;;;;;28.53;20.83;;;;;;;;;;5067034;28;20184;-71
2021/05/14 04:33:54;;;;;;;28.40;19.37;;;;;;;;;;5062784;28;20184;-71
2021/05/14 04:36:19;;;;;;;28.03;20.33;;;;;;;;;;5070109;28;20672;-71
2021/05/14 04:38:44;;;;;;;31.23;20.77;;;;;;;;;;5063401;28;20222;-70
2021/05/14 04:41:09;;;;;;;24.00;18.90;;;;;;;;;;5061158;28;20275;-71
2021/05/14 04:43:34;;;;;;;31.43;20.87;;;;;;;;;;5068892;28;20203;-71
2021/05/14 04:46:00;;;;;;;24.93;19.43;;;;;;;;;;5063822;28;20177;-71
2021/05/14 04:48:25;;;;;;;26.60;19.20;;;;;;;;;;5069728;28;20546;-71
2021/05/14 04:50:50;;;;;;;25.87;19.30;;;;;;;;;;5064297;28;20173;-71
2021/05/14 04:53:17;;;;;;;24.13;17.83;;;;;;;;;;5070651;28;20193;-70
2021/05/14 04:55:42;;;;;;;27.17;20.03;;;;;;;;;;5064637;28;20702;-70
2021/05/14 04:58:07;;;;;;;26.43;19.70;;;;;;;;;;5065564;28;20268;-70
2021/05/14 05:00:32;;;;;;;26.33;20.73;;;;;;;;;;5067082;28;20343;-71
2021/05/14 05:02:58;;;;;;;28.10;19.70;;;;;;;;;;5058399;28;20189;-70
2021/05/14 05:05:24;;;;;;;25.47;18.80;;;;;;;;;;5060808;28;20173;-71
2021/05/14 05:07:49;;;;;;;27.07;18.90;;;;;;;;;;5066746;28;20169;-71
2021/05/14 05:10:15;;;;;;;23.77;19.00;;;;;;;;;;5062408;28;20718;-71
2021/05/14 05:12:40;;;;;;;24.50;18.90;;;;;;;;;;5066558;28;20197;-70
2021/05/14 05:15:05;;;;;;;26.83;19.17;;;;;;;;;;5065241;28;20269;-71
2021/05/14 05:17:31;;;;;;;23.57;17.17;;;;;;;;;;5061539;28;20555;-71
2021/05/14 05:19:56;;;;;;;22.83;17.10;;;;;;;;;;5062450;28;20182;-70
2021/05/14 05:22:24;;;;;;;21.30;17.57;;;;;;;;;;5067125;28;20275;-71
2021/05/14 05:24:49;;;;;;;20.70;17.30;;;;;;;;;;5055373;28;20227;-70
2021/05/14 05:27:14;;;;;;;20.30;15.73;;;;;;;;;;5065335;28;20169;-71
2021/05/14 05:29:40;;;;;;;20.40;16.37;;;;;;;;;;5063183;28;20177;-70
2021/05/14 05:32:05;;;;;;;19.23;15.13;;;;;;;;;;5058431;28;20689;-71
2021/05/14 05:34:30;;;;;;;16.53;14.73;;;;;;;;;;5063962;28;20286;-71
2021/05/14 05:36:56;;;;;;;17.87;14.90;;;;;;;;;;5061973;28;20304;-69
2021/05/14 05:39:21;;;;;;;19.57;14.90;;;;;;;;;;5059289;28;20177;-70
2021/05/14 05:41:46;;;;;;;17.13;14.20;;;;;;;;;;5061468;28;20203;-70
2021/05/14 05:44:12;;;;;;;20.27;15.73;;;;;;;;;;5060324;28;20204;-70
2021/05/14 05:46:37;;;;;;;19.67;15.07;;;;;;;;;;5060021;28;20317;-71
2021/05/14 05:49:02;;;;;;;23.13;16.67;;;;;;;;;;5063256;28;20695;-69
2021/05/14 05:51:29;;;;;;;16.87;13.90;;;;;;;;;;5069457;28;20181;-70
2021/05/14 05:53:54;;;;;;;19.93;15.57;;;;;;;;;;5056518;28;20189;-71
2021/05/14 05:56:19;;;;;;;20.10;16.57;;;;;;;;;;5065642;28;20661;-70
2021/05/14 05:58:44;;;;;;;18.70;14.77;;;;;;;;;;5065780;28;20197;-70
2021/05/14 06:01:10;;;;;;;19.87;14.90;;;;;;;;;;5062688;28;20582;-70
2021/05/14 06:03:35;;;;;;;17.58;14.48;;;;;;;;;;5064242;28;20203;-70
2021/05/14 06:06:00;;;;;;;16.83;15.05;;;;;;;;;;5056961;28;20173;-70
2021/05/14 06:08:25;;;;;;;17.25;15.25;;;;;;;;;;5063870;28;20539;-70
2021/05/14 06:10:52;;;;;;;20.53;15.87;;;;;;;;;;5063924;28;20181;-70
2021/05/14 06:13:17;;;;;;;17.02;14.60;;;;;;;;;;5060049;28;20649;-70
2021/05/14 06:15:42;;;;;;;19.95;15.68;;;;;;;;;;5065837;28;20181;-70
2021/05/14 06:18:12;;;;;;;20.95;15.38;;;;;;;;;;5063468;28;20182;-70
2021/05/14 06:20:39;;;;;;;15.95;14.32;;;;;;;;;;5064415;28;20708;-70
2021/05/14 06:23:04;;;;;;;18.60;14.77;;;;;;;;;;5068154;28;20928;-70
2021/05/14 06:25:29;;;;;;;17.67;14.23;;;;;;;;;;5063084;28;20260;-69
2021/05/14 06:27:55;;;;;;;16.70;14.93;;;;;;;;;;5057773;28;20204;-70
2021/05/14 06:30:20;;;;;;;15.60;13.60;;;;;;;;;;5060249;28;20179;-69
2021/05/14 06:32:45;;;;;;;20.23;15.77;;;;;;;;;;5055335;28;20197;-69
2021/05/14 06:35:11;;;;;;;18.33;14.57;;;;;;;;;;5066258;28;20209;-70
2021/05/14 06:37:37;;;;;;;15.18;13.20;;;;;;;;;;5059211;28;20942;-69
2021/05/14 06:40:03;;;;;;;15.07;13.20;;;;;;;;;;5058489;28;20597;-70
2021/05/14 06:42:29;;;;;;;15.93;13.40;;;;;;;;;;5059914;28;20204;-70
2021/05/14 06:44:55;;;;;;;16.40;13.63;;;;;;;;;;5055063;28;20551;-70
2021/05/14 06:47:21;;;;;;;16.63;12.98;;;;;;;;;;5063917;28;20260;-70
2021/05/14 06:49:46;;;;;;;16.67;13.93;;;;;;;;;;5060829;28;20251;-70
2021/05/14 06:52:11;;;;;;;15.63;13.93;;;;;;;;;;5057828;28;20205;-71
2021/05/14 06:54:37;;;;;;;15.73;13.88;;;;;;;;;;5063582;28;20176;-70
2021/05/14 06:57:02;;;;;;;14.70;13.20;;;;;;;;;;5058962;28;20178;-70
2021/05/14 06:59:27;;;;;;;15.43;13.57;;;;;;;;;;5061892;28;20605;-69
2021/05/14 07:01:52;;;;;;;17.77;15.18;;;;;;;;;;5054609;28;20588;-70
2021/05/14 07:04:18;;;;;;;19.15;14.45;;;;;;;;;;5059487;28;20181;-69
2021/05/14 07:06:43;;;;;;;18.42;14.20;;;;;;;;;;5060475;28;20177;-70
2021/05/14 07:09:09;;;;;;;16.15;13.73;;;;;;;;;;5061383;28;20180;-69
2021/05/14 07:11:34;;;;;;;13.40;12.00;;;;;;;;;;5065212;28;20193;-70
2021/05/14 07:13:59;;;;;;;14.18;11.63;;;;;;;;;;5057402;28;20633;-70
2021/05/14 07:16:24;;;;;;;16.27;12.95;;;;;;;;;;5058240;28;20260;-69
2021/05/14 07:18:50;;;;;;;15.13;12.55;;;;;;;;;;5057285;28;20215;-70
2021/05/14 07:21:15;;;;;;;18.88;13.18;;;;;;;;;;5059149;28;20219;-70
2021/05/14 07:23:41;;;;;;;17.05;13.23;;;;;;;;;;5062285;28;20661;-70
2021/05/14 07:26:06;;;;;;;15.43;12.43;;;;;;;;;;5065325;28;20205;-69
2021/05/14 07:28:31;;;;;;;14.00;12.40;;;;;;;;;;5058291;28;20192;-69
2021/05/14 07:30:56;;;;;;;15.55;12.88;;;;;;;;;;5063082;28;20173;-70
2021/05/14 07:33:22;;;;;;;14.98;12.05;;;;;;;;;;5059650;28;20201;-69
2021/05/14 07:35:47;;;;;;;15.07;12.93;;;;;;;;;;5061902;28;20193;-69
2021/05/14 07:38:12;;;;;;;13.95;12.50;;;;;;;;;;5064658;28;20208;-70
2021/05/14 07:40:38;;;;;;;13.27;11.70;;;;;;;;;;5064012;28;20197;-70
2021/05/14 07:43:03;;;;;;;12.57;11.38;;;;;;;;;;5062707;28;20822;-70
2021/05/14 07:45:29;;;;;;;14.68;13.18;;;;;;;;;;5061348;28;20185;-70
2021/05/14 07:47:54;;;;;;;17.48;15.18;;;;;;;;;;5059856;28;20180;-70
2021/05/14 07:50:19;;;;;;;17.48;14.65;;;;;;;;;;5062025;28;20238;-70
2021/05/14 07:52:45;;;;;;;15.77;14.15;;;;;;;;;;5065992;28;20192;-70
2021/05/14 07:55:10;;;;;;;17.65;14.90;;;;;;;;;;5057240;28;20264;-70
2021/05/14 07:57:35;;;;;;;16.25;14.48;;;;;;;;;;5063970;28;20165;-70
2021/05/14 08:00:00;;;;;;;17.27;13.97;;;;;;;;;;5052999;28;20191;-71
2021/05/14 08:02:25;;;;;;;16.83;14.88;;;;;;;;;;5060414;28;20448;-69
2021/05/14 08:04:51;;;;;;;14.13;12.63;;;;;;;;;;5065067;28;20185;-71
2021/05/14 08:07:16;;;;;;;14.10;12.27;;;;;;;;;;5057409;28;20512;-70
2021/05/14 08:09:43;;;;;;;15.35;12.80;;;;;;;;;;5059936;28;20654;-70
2021/05/14 08:12:09;;;;;;;16.83;14.55;;;;;;;;;;5061818;28;20211;-70
2021/05/14 08:14:34;;;;;;;14.68;12.95;;;;;;;;;;5061694;28;20186;-70
2021/05/14 08:16:59;;;;;;;16.05;13.60;;;;;;;;;;5063627;28;20642;-70
2021/05/14 08:19:24;;;;;;;14.95;12.50;;;;;;;;;;5060844;28;20271;-71
2021/05/14 08:21:49;;;;;;;13.55;11.93;;;;;;;;;;5053581;28;20205;-71
2021/05/14 08:24:15;;;;;;;17.63;13.65;;;;;;;;;;5057837;28;20178;-71
2021/05/14 08:26:40;;;;;;;16.73;14.07;;;;;;;;;;5061840;28;20180;-71
2021/05/14 08:29:06;;;;;;;16.80;13.02;;;;;;;;;;5058722;28;20647;-70
2021/05/14 08:31:35;;;;;;;14.85;13.25;;;;;;;;;;5058783;28;20700;-70
2021/05/14 08:34:00;;;;;;;16.52;13.80;;;;;;;;;;5050803;28;20225;-68
2021/05/14 08:36:25;;;;;;;13.85;12.38;;;;;;;;;;5058991;28;20684;-70
2021/05/14 08:38:51;;;;;;;14.53;12.83;;;;;;;;;;5057659;28;20181;-70
2021/05/14 08:41:17;;;;;;;13.02;11.55;;;;;;;;;;5059693;28;20453;-69
2021/05/14 08:43:42;;;;;;;14.10;12.07;;;;;;;;;;5059995;28;20173;-68
2021/05/14 08:46:10;;;;;;;13.45;12.05;;;;;;;;;;5061201;28;20617;-69
2021/05/14 08:48:36;;;;;;;14.27;12.07;;;;;;;;;;5061884;28;20186;-68
2021/05/14 08:51:08;;;;;;;14.43;11.43;;;;;;;;;;5054853;28;20178;-71
2021/05/14 08:53:34;;;;;;;13.30;11.25;;;;;;;;;;5060707;28;20202;-69
2021/05/14 08:55:59;;;;;;;13.90;11.93;;;;;;;;;;5058532;28;20531;-69
2021/05/14 08:58:26;;;;;;;15.85;11.30;;;;;;;;;;5058129;28;20174;-70
2021/05/14 09:00:51;;;;;;;12.82;10.82;;;;;;;;;;5060205;28;20197;-70
2021/05/14 09:03:17;;;;;;;12.88;11.57;;;;;;;;;;5056923;28;20880;-69
2021/05/14 09:05:45;;;;;;;11.40;10.30;;;;;;;;;;5057719;28;20182;-70
2021/05/14 09:08:10;;;;;;;12.38;10.18;;;;;;;;;;5058133;28;20178;-70
2021/05/14 09:10:35;;;;;;;11.03;9.83;;;;;;;;;;5067364;28;20180;-70
2021/05/14 09:13:09;;;;;;;12.53;11.07;;;;;;;;;;5061230;28;21006;-70
2021/05/14 09:15:35;;;;;;;13.07;11.77;;;;;;;;;;5062547;28;20491;-70
2021/05/14 09:18:01;;;;;;;12.50;11.20;;;;;;;;;;5062984;28;20181;-70
2021/05/14 09:20:30;;;;;;;10.98;9.93;;;;;;;;;;5062050;28;20659;-69
2021/05/14 09:22:55;;;;;;;11.90;10.35;;;;;;;;;;5061192;28;20289;-70
2021/05/14 09:25:22;;;;;;;11.68;10.57;;;;;;;;;;5059043;28;20260;-70
2021/05/14 09:27:47;;;;;;;11.70;10.50;;;;;;;;;;5061385;28;20189;-72
2021/05/14 09:30:12;;;;;;;12.20;10.83;;;;;;;;;;5065144;28;20173;-70
2021/05/14 09:32:40;;;;;;;11.50;10.30;;;;;;;;;;5070981;28;20487;-69
2021/05/14 09:35:06;;;;;;;11.88;10.55;;;;;;;;;;5058229;28;20651;-69
2021/05/14 09:37:32;;;;;;;11.02;9.98;;;;;;;;;;5065832;28;20197;-70
2021/05/14 09:40:12;;;;;;;12.23;10.40;;;;;;;;;;5058277;28;20180;-70
2021/05/14 09:42:37;;;;;;;11.50;10.40;;;;;;;;;;5059769;28;20677;-69
2021/05/14 09:45:22;;;;;;;12.50;10.43;;;;;;;;;;5060758;28;20250;-69
2021/05/14 09:48:02;;;;;;;13.05;11.65;;;;;;;;;;5053833;28;20422;-70
2021/05/14 09:50:27;;;;;;;11.88;10.65;;;;;;;;;;5055937;28;20172;-71
2021/05/14 09:53:02;;;;;;;12.40;11.10;;;;;;;;;;5060874;28;20203;-70
2021/05/14 09:55:27;;;;;;;12.32;11.10;;;;;;;;;;5061406;28;20168;-70
2021/05/14 09:58:00;;;;;;;11.67;10.43;;;;;;;;;;5059370;28;20196;-70
2021/05/14 10:00:27;;;;;;;12.18;10.98;;;;;;;;;;5064827;28;20823;-70
2021/05/14 10:02:52;;;;;;;12.32;10.65;;;;;;;;;;5061900;28;20202;-70
2021/05/14 10:05:18;;;;;;;11.25;10.05;;;;;;;;;;5063672;28;20185;-69
2021/05/14 10:07:45;;;;;;;10.43;9.18;;;;;;;;;;5061495;28;20178;-69
2021/05/14 10:10:11;;;;;;;10.38;9.38;;;;;;;;;;5065498;28;20198;-70
2021/05/14 10:12:36;;;;;;;10.05;9.00;;;;;;;;;;5063365;28;20256;-70
2021/05/14 10:15:09;;;;;;;10.45;9.38;;;;;;;;;;5061098;28;20185;-70
2021/05/14 10:17:37;;;;;;;11.40;10.13;;;;;;;;;;5059334;28;20184;-70
2021/05/14 10:20:04;;;;;;;12.52;11.32;;;;;;;;;;5063719;28;20174;-70
2021/05/14 10:22:30;;;;;;;12.93;11.63;;;;;;;;;;5064879;28;20200;-70
2021/05/14 10:24:59;;;;;;;11.85;10.68;;;;;;;;;;5057429;28;20613;-70
2021/05/14 10:27:25;;;;;;;12.20;10.90;;;;;;;;;;5059598;28;20539;-68
2021/05/14 10:29:57;;;;;;;13.63;12.27;;;;;;;;;;5061032;28;20232;-70
2021/05/14 10:32:41;;;;;;;11.48;10.27;;;;;;;;;;5064007;28;20200;-70
2021/05/14 10:35:07;;;;;;;12.48;10.30;;;;;;;;;;5061638;28;20560;-71
2021/05/14 10:37:45;;;;;;;12.32;11.07;;;;;;;;;;5070035;28;20211;-70
2021/05/14 10:40:39;;;;;;;11.25;10.15;;;;;;;;;;5067938;28;20260;-70
2021/05/14 10:43:18;;;;;;;10.45;8.82;;;;;;;;;;5065633;28;20217;-72
2021/05/14 10:46:03;;;;;;;10.43;9.45;;;;;;;;;;5057423;28;20177;-69
2021/05/14 10:48:28;;;;;;;9.85;8.32;;;;;;;;;;5062930;28;20259;-69
2021/05/14 10:51:05;;;;;;;11.35;9.77;;;;;;;;;;5066187;28;20268;-70
2021/05/14 10:53:33;;;;;;;10.40;9.30;;;;;;;;;;5064219;28;20230;-70
2021/05/14 10:56:10;;;;;;;12.63;11.32;;;;;;;;;;5066522;28;20169;-70
2021/05/14 10:58:48;;;;;;;14.05;11.55;;;;;;;;;;5062462;28;20184;-70
2021/05/14 11:01:26;;;;;;;12.05;10.93;;;;;;;;;;5066474;28;20205;-70
2021/05/14 11:03:51;;;;;;;11.50;10.40;;;;;;;;;;5062156;28;20180;-70
2021/05/14 11:06:18;;;;;;;10.90;9.82;;;;;;;;;;5064744;28;20178;-70
2021/05/14 11:08:56;;;;;;;11.77;9.95;;;;;;;;;;5067343;28;20184;-69
2021/05/14 11:11:22;;;;;;;11.00;10.00;;;;;;;;;;5056715;28;20238;-70
2021/05/14 11:13:53;;;;;;;11.83;10.73;;;;;;;;;;5055011;28;20173;-71
2021/05/14 11:16:39;;;;;;;11.45;10.25;;;;;;;;;;5059136;28;20426;-70
2021/05/14 11:19:15;;;;;;;10.60;9.07;;;;;;;;;;5056655;28;20229;-70
2021/05/14 11:21:55;;;;;;;10.88;9.32;;;;;;;;;;5061564;28;20207;-71
2021/05/14 11:24:30;;;;;;;9.93;8.93;;;;;;;;;;5065946;28;20200;-70
2021/05/14 11:27:11;;;;;;;10.50;9.50;;;;;;;;;;5057197;28;20254;-69
2021/05/14 11:29:46;;;;;;;9.93;8.95;;;;;;;;;;5063768;28;20169;-70
2021/05/14 11:32:12;;;;;;;10.20;9.20;;;;;;;;;;5064131;28;20832;-70
2021/05/14 11:34:56;;;;;;;10.38;9.27;;;;;;;;;;5063516;28;20180;-71
2021/05/14 11:37:22;;;;;;;10.20;9.23;;;;;;;;;;5066561;28;20193;-71
2021/05/14 11:39:47;;;;;;;10.45;9.35;;;;;;;;;;5063330;28;20176;-70
2021/05/14 11:42:16;;;;;;;9.70;8.48;;;;;;;;;;5058182;28;20211;-71
2021/05/14 11:45:01;;;;;;;9.75;8.60;;;;;;;;;;5056576;28;20726;-70
2021/05/14 11:47:27;;;;;;;10.38;9.27;;;;;;;;;;5068988;28;20173;-72
2021/05/14 11:49:53;;;;;;;9.18;8.27;;;;;;;;;;5058849;28;20280;-69
2021/05/14 11:52:31;;;;;;;10.23;8.57;;;;;;;;;;5059634;28;20211;-69
2021/05/14 11:55:04;;;;;;;11.65;9.10;;;;;;;;;;5052513;28;20188;-70
2021/05/14 11:57:30;;;;;;;9.45;8.45;;;;;;;;;;5052335;28;20193;-69
2021/05/14 11:59:56;;;;;;;8.65;7.85;;;;;;;;;;5060897;28;20173;-70
2021/05/14 12:02:34;;;;;;;10.27;9.35;;;;;;;;;;5063290;28;20258;-70
2021/05/14 12:04:59;;;;;;;10.10;9.07;;;;;;;;;;5055350;28;20693;-69
2021/05/14 12:07:24;;;;;;;11.60;8.03;;;;;;;;;;5059801;28;20200;-68
2021/05/14 12:09:56;;;;;;;10.63;8.15;;;;;;;;;;5053807;28;20465;-70
2021/05/14 12:12:21;;;;;;;8.55;7.50;;;;;;;;;;5061490;28;20189;-71
2021/05/14 12:14:46;;;;;;;9.37;8.30;;;;;;;;;;5057677;28;20200;-71
2021/05/14 12:17:12;;;;;;;11.47;8.57;;;;;;;;;;5057699;28;20177;-70
2021/05/14 12:19:47;;;;;;;9.32;7.72;;;;;;;;;;5062917;28;20436;-69
2021/05/14 12:22:12;;;;;;;9.30;8.15;;;;;;;;;;5057032;28;20262;-69
2021/05/14 12:24:38;;;;;;;7.88;7.03;;;;;;;;;;5058204;28;20181;-70
2021/05/14 12:27:09;;;;;;;9.55;7.60;;;;;;;;;;5060000;28;20193;-70
2021/05/14 12:29:34;;;;;;;11.30;7.90;;;;;;;;;;5060861;28;20581;-70
2021/05/14 12:32:02;;;;;;;9.13;8.00;;;;;;;;;;5057928;28;20189;-69
2021/05/14 12:34:28;;;;;;;8.48;7.68;;;;;;;;;;5063393;28;20447;-70
2021/05/14 12:36:54;;;;;;;9.00;8.13;;;;;;;;;;5059180;28;20189;-70
2021/05/14 12:39:20;;;;;;;10.07;7.68;;;;;;;;;;5058818;28;20256;-70
2021/05/14 12:41:58;;;;;;;11.50;8.30;;;;;;;;;;5066299;28;20334;-71
2021/05/14 12:44:28;;;;;;;9.88;7.32;;;;;;;;;;5056393;28;20187;-71
2021/05/14 12:46:54;;;;;;;8.60;7.47;;;;;;;;;;5065006;28;20254;-70
2021/05/14 12:49:19;;;;;;;8.77;7.82;;;;;;;;;;5066066;28;20652;-71
2021/05/14 12:51:44;;;;;;;9.02;8.13;;;;;;;;;;5059781;28;20209;-71
2021/05/14 12:54:20;;;;;;;9.00;7.87;;;;;;;;;;5063680;28;20188;-69
2021/05/14 12:56:45;;;;;;;9.07;7.70;;;;;;;;;;5064352;28;20413;-69
2021/05/14 12:59:10;;;;;;;8.17;7.23;;;;;;;;;;5062296;28;20580;-70
2021/05/14 13:01:46;;;;;;;9.87;6.57;;;;;;;;;;5063924;28;20457;-70
2021/05/14 13:04:11;;;;;;;9.77;7.07;;;;;;;;;;5060588;28;20417;-70
2021/05/14 13:06:36;;;;;;;7.78;6.78;;;;;;;;;;5068941;28;20704;-70
2021/05/14 13:09:05;;;;;;;7.00;6.00;;;;;;;;;;5072910;28;20179;-71
2021/05/14 13:11:35;;;;;;;8.73;6.43;;;;;;;;;;5069402;28;20962;-70
2021/05/14 13:14:00;;;;;;;10.57;7.18;;;;;;;;;;5065734;28;20184;-70
2021/05/14 13:16:25;;;;;;;9.27;6.63;;;;;;;;;;5064960;28;20256;-71
2021/05/14 13:18:51;;;;;;;7.07;6.30;;;;;;;;;;5065042;28;20823;-71
2021/05/14 13:21:16;;;;;;;8.95;7.40;;;;;;;;;;5059423;28;20451;-70
2021/05/14 13:23:42;;;;;;;7.50;6.70;;;;;;;;;;5062026;28;20189;-70
2021/05/14 13:26:08;;;;;;;8.52;7.72;;;;;;;;;;5058095;28;20424;-69
2021/05/14 13:28:34;;;;;;;8.50;7.00;;;;;;;;;;5056687;28;20185;-70
2021/05/14 13:30:59;;;;;;;8.30;7.43;;;;;;;;;;5061660;28;20666;-70
2021/05/14 13:33:24;;;;;;;7.37;6.67;;;;;;;;;;5071700;28;20204;-68
2021/05/14 13:35:49;;;;;;;9.40;7.30;;;;;;;;;;5060273;28;20426;-69
2021/05/14 13:38:14;;;;;;;8.40;6.70;;;;;;;;;;5061294;28;20977;-68
2021/05/14 13:40:40;;;;;;;6.95;6.30;;;;;;;;;;5063466;28;20453;-69
2021/05/14 13:43:05;;;;;;;9.30;7.20;;;;;;;;;;5065920;28;20215;-69
2021/05/14 13:45:30;;;;;;;7.82;6.97;;;;;;;;;;5060343;28;20214;-69
2021/05/14 13:47:55;;;;;;;8.97;7.50;;;;;;;;;;5066657;28;20173;-69
2021/05/14 13:50:21;;;;;;;9.32;6.53;;;;;;;;;;5067055;28;20940;-69
2021/05/14 13:52:46;;;;;;;9.07;7.55;;;;;;;;;;5064372;28;20627;-69
2021/05/14 13:55:11;;;;;;;7.55;6.75;;;;;;;;;;5058071;28;20720;-70
2021/05/14 13:57:37;;;;;;;8.50;5.72;;;;;;;;;;5060326;28;20174;-69
2021/05/14 14:00:05;;;;;;;7.82;7.03;;;;;;;;;;5063840;28;20220;-67
2021/05/14 14:02:30;;;;;;;8.45;6.85;;;;;;;;;;5067628;28;20211;-69
2021/05/14 14:04:55;;;;;;;9.45;6.95;;;;;;;;;;5069465;28;20249;-69
2021/05/14 14:07:20;;;;;;;7.82;6.28;;;;;;;;;;5061974;28;20184;-70
2021/05/14 14:09:46;;;;;;;8.17;7.23;;;;;;;;;;5061479;28;20184;-70
2021/05/14 14:12:11;;;;;;;8.27;7.00;;;;;;;;;;5064108;28;20438;-70
2021/05/14 14:14:36;;;;;;;8.30;6.47;;;;;;;;;;5066708;28;20425;-71
2021/05/14 14:17:01;;;;;;;8.07;6.97;;;;;;;;;;5067580;28;20642;-71
2021/05/14 14:19:27;;;;;;;8.77;7.77;;;;;;;;;;5062778;28;20193;-73
2021/05/14 14:21:52;;;;;;;8.98;7.50;;;;;;;;;;5066429;28;20461;-71
2021/05/14 14:24:18;;;;;;;8.50;7.57;;;;;;;;;;5065588;28;21613;-70